sensor_id;sensor_type;location;lat;lon;timestamp;temperature;humidity
2625;DHT22;1322;53.256;10.386;2023-12-14T00:00:27;4.70;99.90
2625;DHT22;1322;53.256;10.386;2023-12-14T00:02:53;4.60;99.90
2625;DHT22;1322;53.256;10.386;2023-12-14T00:05:18;4.60;99.90
2625;DHT22;1322;53.256;10.386;2023-12-14T00:07:44;4.60;99.90
2625;DHT22;1322;53.256;10.386;2023-12-14T00:10:10;4.50;99.90
2625;DHT22;1322;53.256;10.386;2023-12-14T00:12:35;4.60;99.90
2625;DHT22;1322;53.256;10.386;2023-12-14T00:15:01;4.50;99.90
2625;DHT22;1322;53.256;10.386;2023-12-14T00:17:26;4.50;99.90
2625;DHT22;1322;53.256;10.386;2023-12-14T00:19:52;4.40;99.90
2625;DHT22;1322;53.256;10.386;2023-12-14T00:22:17;4.50;99.90
2625;DHT22;1322;53.256;10.386;2023-12-14T00:24:43;4.50;99.90
2625;DHT22;1322;53.256;10.386;2023-12-14T00:27:09;4.50;99.90
2625;DHT22;1322;53.256;10.386;2023-12-14T00:29:34;4.50;99.90
2625;DHT22;1322;53.256;10.386;2023-12-14T00:32:00;4.40;99.90
2625;DHT22;1322;53.256;10.386;2023-12-14T00:34:25;4.50;99.90
2625;DHT22;1322;53.256;10.386;2023-12-14T00:36:51;4.50;99.90
2625;DHT22;1322;53.256;10.386;2023-12-14T00:39:16;4.50;99.90
2625;DHT22;1322;53.256;10.386;2023-12-14T00:41:42;4.50;99.90
2625;DHT22;1322;53.256;10.386;2023-12-14T00:44:08;4.50;99.90
2625;DHT22;1322;53.256;10.386;2023-12-14T00:46:33;4.40;99.90
2625;DHT22;1322;53.256;10.386;2023-12-14T00:48:59;4.40;99.90
2625;DHT22;1322;53.256;10.386;2023-12-14T00:51:24;4.50;99.90
2625;DHT22;1322;53.256;10.386;2023-12-14T00:53:50;4.50;99.90
2625;DHT22;1322;53.256;10.386;2023-12-14T00:56:16;4.80;99.90
2625;DHT22;1322;53.256;10.386;2023-12-14T00:58:41;4.40;99.90
2625;DHT22;1322;53.256;10.386;2023-12-14T01:01:07;4.50;99.90
2625;DHT22;1322;53.256;10.386;2023-12-14T01:03:32;4.50;99.90
2625;DHT22;1322;53.256;10.386;2023-12-14T01:05:58;4.60;99.90
2625;DHT22;1322;53.256;10.386;2023-12-14T01:08:24;4.60;99.90
2625;DHT22;1322;53.256;10.386;2023-12-14T01:10:49;4.60;99.90
2625;DHT22;1322;53.256;10.386;2023-12-14T01:13:15;4.70;99.90
2625;DHT22;1322;53.256;10.386;2023-12-14T01:15:41;4.70;99.90
2625;DHT22;1322;53.256;10.386;2023-12-14T01:18:06;4.70;99.90
2625;DHT22;1322;53.256;10.386;2023-12-14T01:20:32;4.70;99.90
2625;DHT22;1322;53.256;10.386;2023-12-14T01:22:57;4.70;99.90
2625;DHT22;1322;53.256;10.386;2023-12-14T01:25:23;4.80;99.90
2625;DHT22;1322;53.256;10.386;2023-12-14T01:27:48;5.70;99.90
2625;DHT22;1322;53.256;10.386;2023-12-14T01:30:14;4.70;99.90
2625;DHT22;1322;53.256;10.386;2023-12-14T01:32:40;4.80;99.90
2625;DHT22;1322;53.256;10.386;2023-12-14T01:35:05;4.70;99.90
2625;DHT22;1322;53.256;10.386;2023-12-14T01:37:31;4.80;99.90
2625;DHT22;1322;53.256;10.386;2023-12-14T01:39:57;4.80;99.90
2625;DHT22;1322;53.256;10.386;2023-12-14T01:42:22;4.80;99.90
2625;DHT22;1322;53.256;10.386;2023-12-14T01:44:48;4.80;99.90
2625;DHT22;1322;53.256;10.386;2023-12-14T01:47:13;4.80;99.90
2625;DHT22;1322;53.256;10.386;2023-12-14T01:49:39;4.80;99.90
2625;DHT22;1322;53.256;10.386;2023-12-14T01:52:06;4.90;99.90
2625;DHT22;1322;53.256;10.386;2023-12-14T01:54:32;4.90;99.90
2625;DHT22;1322;53.256;10.386;2023-12-14T01:56:58;4.80;99.90
2625;DHT22;1322;53.256;10.386;2023-12-14T01:59:24;4.80;99.90
2625;DHT22;1322;53.256;10.386;2023-12-14T02:01:54;4.70;99.90
2625;DHT22;1322;53.256;10.386;2023-12-14T02:04:23;4.60;99.90
2625;DHT22;1322;53.256;10.386;2023-12-14T02:06:49;4.50;99.90
2625;DHT22;1322;53.256;10.386;2023-12-14T02:09:15;4.70;99.90
2625;DHT22;1322;53.256;10.386;2023-12-14T02:11:40;4.80;99.90
2625;DHT22;1322;53.256;10.386;2023-12-14T02:14:08;4.80;99.90
2625;DHT22;1322;53.256;10.386;2023-12-14T02:16:34;4.80;99.90
2625;DHT22;1322;53.256;10.386;2023-12-14T02:19:00;4.80;99.90
2625;DHT22;1322;53.256;10.386;2023-12-14T02:21:28;4.90;99.90
2625;DHT22;1322;53.256;10.386;2023-12-14T02:23:54;5.00;99.90
2625;DHT22;1322;53.256;10.386;2023-12-14T02:26:20;5.00;99.90
2625;DHT22;1322;53.256;10.386;2023-12-14T02:28:45;5.00;99.90
2625;DHT22;1322;53.256;10.386;2023-12-14T02:31:11;4.90;99.90
2625;DHT22;1322;53.256;10.386;2023-12-14T02:33:36;4.90;99.90
2625;DHT22;1322;53.256;10.386;2023-12-14T02:36:02;4.70;99.90
2625;DHT22;1322;53.256;10.386;2023-12-14T02:38:29;4.70;99.90
2625;DHT22;1322;53.256;10.386;2023-12-14T02:40:54;4.60;99.90
2625;DHT22;1322;53.256;10.386;2023-12-14T02:43:20;5.30;99.90
2625;DHT22;1322;53.256;10.386;2023-12-14T02:45:46;4.70;99.90
2625;DHT22;1322;53.256;10.386;2023-12-14T02:48:12;4.70;99.90
2625;DHT22;1322;53.256;10.386;2023-12-14T02:50:38;4.70;99.90
2625;DHT22;1322;53.256;10.386;2023-12-14T02:53:03;4.70;99.90
2625;DHT22;1322;53.256;10.386;2023-12-14T02:55:29;4.90;99.90
2625;DHT22;1322;53.256;10.386;2023-12-14T02:57:54;4.80;99.90
2625;DHT22;1322;53.256;10.386;2023-12-14T03:00:21;4.90;99.90
2625;DHT22;1322;53.256;10.386;2023-12-14T03:02:48;4.90;99.90
2625;DHT22;1322;53.256;10.386;2023-12-14T03:05:14;4.80;99.90
2625;DHT22;1322;53.256;10.386;2023-12-14T03:07:39;4.70;99.90
2625;DHT22;1322;53.256;10.386;2023-12-14T03:10:06;4.80;99.90
2625;DHT22;1322;53.256;10.386;2023-12-14T03:12:32;4.90;99.90
2625;DHT22;1322;53.256;10.386;2023-12-14T03:14:58;5.00;99.90
2625;DHT22;1322;53.256;10.386;2023-12-14T03:17:23;4.90;99.90
2625;DHT22;1322;53.256;10.386;2023-12-14T03:19:49;4.90;99.90
2625;DHT22;1322;53.256;10.386;2023-12-14T03:22:14;4.90;99.90
2625;DHT22;1322;53.256;10.386;2023-12-14T03:24:40;4.80;99.90
2625;DHT22;1322;53.256;10.386;2023-12-14T03:27:05;4.70;99.90
2625;DHT22;1322;53.256;10.386;2023-12-14T03:29:31;4.70;99.90
2625;DHT22;1322;53.256;10.386;2023-12-14T03:31:57;4.70;99.90
2625;DHT22;1322;53.256;10.386;2023-12-14T03:34:23;4.70;99.90
2625;DHT22;1322;53.256;10.386;2023-12-14T03:36:49;4.60;99.90
2625;DHT22;1322;53.256;10.386;2023-12-14T03:39:15;4.60;99.90
2625;DHT22;1322;53.256;10.386;2023-12-14T03:41:42;4.60;99.90
2625;DHT22;1322;53.256;10.386;2023-12-14T03:44:07;4.70;99.90
2625;DHT22;1322;53.256;10.386;2023-12-14T03:46:33;4.70;99.90
2625;DHT22;1322;53.256;10.386;2023-12-14T03:49:00;4.70;99.90
2625;DHT22;1322;53.256;10.386;2023-12-14T03:51:25;4.80;99.90
2625;DHT22;1322;53.256;10.386;2023-12-14T03:53:51;4.80;99.90
2625;DHT22;1322;53.256;10.386;2023-12-14T03:56:16;4.80;99.90
2625;DHT22;1322;53.256;10.386;2023-12-14T03:58:42;4.80;99.90
2625;DHT22;1322;53.256;10.386;2023-12-14T04:01:08;4.80;99.90
2625;DHT22;1322;53.256;10.386;2023-12-14T04:03:33;4.80;99.90
2625;DHT22;1322;53.256;10.386;2023-12-14T04:05:59;4.70;99.90
2625;DHT22;1322;53.256;10.386;2023-12-14T04:08:24;4.70;99.90
2625;DHT22;1322;53.256;10.386;2023-12-14T04:10:50;4.80;99.90
2625;DHT22;1322;53.256;10.386;2023-12-14T04:13:16;4.80;99.90
2625;DHT22;1322;53.256;10.386;2023-12-14T04:15:42;4.80;99.90
2625;DHT22;1322;53.256;10.386;2023-12-14T04:18:07;4.80;99.90
2625;DHT22;1322;53.256;10.386;2023-12-14T04:20:34;4.90;99.90
2625;DHT22;1322;53.256;10.386;2023-12-14T04:22:59;5.00;99.90
2625;DHT22;1322;53.256;10.386;2023-12-14T04:25:25;4.90;99.90
2625;DHT22;1322;53.256;10.386;2023-12-14T04:27:51;4.80;99.90
2625;DHT22;1322;53.256;10.386;2023-12-14T04:30:16;4.80;99.90
2625;DHT22;1322;53.256;10.386;2023-12-14T04:32:42;4.80;99.90
2625;DHT22;1322;53.256;10.386;2023-12-14T04:35:08;4.90;99.90
2625;DHT22;1322;53.256;10.386;2023-12-14T04:37:33;4.80;99.90
2625;DHT22;1322;53.256;10.386;2023-12-14T04:39:59;4.80;99.90
2625;DHT22;1322;53.256;10.386;2023-12-14T04:42:25;4.90;99.90
2625;DHT22;1322;53.256;10.386;2023-12-14T04:44:50;4.80;99.90
2625;DHT22;1322;53.256;10.386;2023-12-14T04:47:16;4.90;99.90
2625;DHT22;1322;53.256;10.386;2023-12-14T04:49:42;4.90;99.90
2625;DHT22;1322;53.256;10.386;2023-12-14T04:52:07;4.80;99.90
2625;DHT22;1322;53.256;10.386;2023-12-14T04:54:34;4.70;99.90
2625;DHT22;1322;53.256;10.386;2023-12-14T04:57:03;4.70;99.90
2625;DHT22;1322;53.256;10.386;2023-12-14T04:59:29;4.70;99.90
2625;DHT22;1322;53.256;10.386;2023-12-14T05:01:54;4.80;99.90
2625;DHT22;1322;53.256;10.386;2023-12-14T05:04:20;4.90;99.90
2625;DHT22;1322;53.256;10.386;2023-12-14T05:06:46;4.80;99.90
2625;DHT22;1322;53.256;10.386;2023-12-14T05:09:11;4.90;99.90
2625;DHT22;1322;53.256;10.386;2023-12-14T05:11:39;4.80;99.90
2625;DHT22;1322;53.256;10.386;2023-12-14T05:14:05;4.80;99.90
2625;DHT22;1322;53.256;10.386;2023-12-14T05:16:30;4.90;99.90
2625;DHT22;1322;53.256;10.386;2023-12-14T05:18:56;4.90;99.90
2625;DHT22;1322;53.256;10.386;2023-12-14T05:21:25;4.90;99.90
2625;DHT22;1322;53.256;10.386;2023-12-14T05:23:50;4.90;99.90
2625;DHT22;1322;53.256;10.386;2023-12-14T05:26:16;5.00;99.90
2625;DHT22;1322;53.256;10.386;2023-12-14T05:28:42;5.00;99.90
2625;DHT22;1322;53.256;10.386;2023-12-14T05:31:08;5.10;99.90
2625;DHT22;1322;53.256;10.386;2023-12-14T05:33:38;5.00;99.90
2625;DHT22;1322;53.256;10.386;2023-12-14T05:36:04;5.00;99.90
2625;DHT22;1322;53.256;10.386;2023-12-14T05:38:34;5.10;99.90
2625;DHT22;1322;53.256;10.386;2023-12-14T05:41:00;5.10;99.90
2625;DHT22;1322;53.256;10.386;2023-12-14T05:43:25;5.20;99.90
2625;DHT22;1322;53.256;10.386;2023-12-14T05:45:51;5.30;99.90
2625;DHT22;1322;53.256;10.386;2023-12-14T05:48:16;5.30;99.90
2625;DHT22;1322;53.256;10.386;2023-12-14T05:50:42;5.40;99.90
2625;DHT22;1322;53.256;10.386;2023-12-14T05:53:07;5.40;99.90
2625;DHT22;1322;53.256;10.386;2023-12-14T05:55:33;5.30;99.90
2625;DHT22;1322;53.256;10.386;2023-12-14T05:57:59;5.20;99.90
2625;DHT22;1322;53.256;10.386;2023-12-14T06:00:24;5.20;99.90
2625;DHT22;1322;53.256;10.386;2023-12-14T06:02:50;5.20;99.90
2625;DHT22;1322;53.256;10.386;2023-12-14T06:05:16;5.20;99.90
2625;DHT22;1322;53.256;10.386;2023-12-14T06:07:41;5.10;99.90
2625;DHT22;1322;53.256;10.386;2023-12-14T06:10:07;5.10;99.90
2625;DHT22;1322;53.256;10.386;2023-12-14T06:12:33;5.10;99.90
2625;DHT22;1322;53.256;10.386;2023-12-14T06:14:58;5.10;99.90
2625;DHT22;1322;53.256;10.386;2023-12-14T06:17:24;5.10;99.90
2625;DHT22;1322;53.256;10.386;2023-12-14T06:19:49;5.10;99.90
2625;DHT22;1322;53.256;10.386;2023-12-14T06:22:15;5.10;99.90
2625;DHT22;1322;53.256;10.386;2023-12-14T06:24:40;5.20;99.90
2625;DHT22;1322;53.256;10.386;2023-12-14T06:27:06;5.10;99.90
2625;DHT22;1322;53.256;10.386;2023-12-14T06:29:32;5.10;99.90
2625;DHT22;1322;53.256;10.386;2023-12-14T06:31:57;5.20;99.90
2625;DHT22;1322;53.256;10.386;2023-12-14T06:34:23;5.20;99.90
2625;DHT22;1322;53.256;10.386;2023-12-14T06:36:49;5.20;99.90
2625;DHT22;1322;53.256;10.386;2023-12-14T06:39:14;5.20;99.90
2625;DHT22;1322;53.256;10.386;2023-12-14T06:41:41;5.10;99.90
2625;DHT22;1322;53.256;10.386;2023-12-14T06:44:06;5.00;99.90
2625;DHT22;1322;53.256;10.386;2023-12-14T06:46:34;5.00;99.90
2625;DHT22;1322;53.256;10.386;2023-12-14T06:49:00;5.00;99.90
2625;DHT22;1322;53.256;10.386;2023-12-14T06:51:25;5.00;99.90
2625;DHT22;1322;53.256;10.386;2023-12-14T06:53:51;5.10;99.90
2625;DHT22;1322;53.256;10.386;2023-12-14T06:56:16;5.10;99.90
2625;DHT22;1322;53.256;10.386;2023-12-14T06:58:43;5.00;99.90
2625;DHT22;1322;53.256;10.386;2023-12-14T07:01:16;5.10;99.90
2625;DHT22;1322;53.256;10.386;2023-12-14T07:03:43;5.10;99.90
2625;DHT22;1322;53.256;10.386;2023-12-14T07:06:16;5.20;99.90
2625;DHT22;1322;53.256;10.386;2023-12-14T07:08:43;5.20;99.90
2625;DHT22;1322;53.256;10.386;2023-12-14T07:11:09;5.20;99.90
2625;DHT22;1322;53.256;10.386;2023-12-14T07:13:35;5.20;99.90
2625;DHT22;1322;53.256;10.386;2023-12-14T07:16:07;5.20;99.90
2625;DHT22;1322;53.256;10.386;2023-12-14T07:18:37;5.20;99.90
2625;DHT22;1322;53.256;10.386;2023-12-14T07:21:04;5.20;99.90
2625;DHT22;1322;53.256;10.386;2023-12-14T07:23:31;5.30;99.90
2625;DHT22;1322;53.256;10.386;2023-12-14T07:25:57;5.20;99.90
2625;DHT22;1322;53.256;10.386;2023-12-14T07:28:22;5.30;99.90
2625;DHT22;1322;53.256;10.386;2023-12-14T07:30:48;5.30;99.90
2625;DHT22;1322;53.256;10.386;2023-12-14T07:33:16;5.20;99.90
2625;DHT22;1322;53.256;10.386;2023-12-14T07:35:42;5.10;99.90
2625;DHT22;1322;53.256;10.386;2023-12-14T07:38:09;5.10;99.90
2625;DHT22;1322;53.256;10.386;2023-12-14T07:40:35;4.90;99.90
2625;DHT22;1322;53.256;10.386;2023-12-14T07:43:01;5.10;99.90
2625;DHT22;1322;53.256;10.386;2023-12-14T07:45:27;5.10;99.90
2625;DHT22;1322;53.256;10.386;2023-12-14T07:47:53;5.20;99.90
2625;DHT22;1322;53.256;10.386;2023-12-14T07:50:19;5.20;99.90
2625;DHT22;1322;53.256;10.386;2023-12-14T07:52:45;5.20;99.90
2625;DHT22;1322;53.256;10.386;2023-12-14T07:55:10;5.20;99.90
2625;DHT22;1322;53.256;10.386;2023-12-14T07:57:36;5.30;99.90
2625;DHT22;1322;53.256;10.386;2023-12-14T08:00:02;5.30;99.90
2625;DHT22;1322;53.256;10.386;2023-12-14T08:02:29;5.30;99.90
2625;DHT22;1322;53.256;10.386;2023-12-14T08:04:54;5.20;99.90
2625;DHT22;1322;53.256;10.386;2023-12-14T08:07:20;5.30;99.90
2625;DHT22;1322;53.256;10.386;2023-12-14T08:09:46;5.30;99.90
2625;DHT22;1322;53.256;10.386;2023-12-14T08:12:11;5.40;99.90
2625;DHT22;1322;53.256;10.386;2023-12-14T08:14:37;5.20;99.90
2625;DHT22;1322;53.256;10.386;2023-12-14T08:17:04;5.60;99.90
2625;DHT22;1322;53.256;10.386;2023-12-14T08:19:30;5.30;99.90
2625;DHT22;1322;53.256;10.386;2023-12-14T08:21:56;5.30;99.90
2625;DHT22;1322;53.256;10.386;2023-12-14T08:24:21;5.30;99.90
2625;DHT22;1322;53.256;10.386;2023-12-14T08:26:47;5.30;99.90
2625;DHT22;1322;53.256;10.386;2023-12-14T08:29:12;5.30;99.90
2625;DHT22;1322;53.256;10.386;2023-12-14T08:31:38;5.30;99.90
2625;DHT22;1322;53.256;10.386;2023-12-14T08:34:04;5.20;99.90
2625;DHT22;1322;53.256;10.386;2023-12-14T08:36:30;5.20;99.90
2625;DHT22;1322;53.256;10.386;2023-12-14T08:38:57;5.20;99.90
2625;DHT22;1322;53.256;10.386;2023-12-14T08:41:22;5.20;99.90
2625;DHT22;1322;53.256;10.386;2023-12-14T08:43:48;5.20;99.90
2625;DHT22;1322;53.256;10.386;2023-12-14T08:46:13;5.30;99.90
2625;DHT22;1322;53.256;10.386;2023-12-14T08:48:39;5.30;99.90
2625;DHT22;1322;53.256;10.386;2023-12-14T08:51:05;5.30;99.90
2625;DHT22;1322;53.256;10.386;2023-12-14T08:53:31;5.20;99.90
2625;DHT22;1322;53.256;10.386;2023-12-14T08:55:57;5.30;99.90
2625;DHT22;1322;53.256;10.386;2023-12-14T08:58:22;5.30;99.90
2625;DHT22;1322;53.256;10.386;2023-12-14T09:00:48;5.20;99.90
2625;DHT22;1322;53.256;10.386;2023-12-14T09:03:18;5.20;99.90
2625;DHT22;1322;53.256;10.386;2023-12-14T09:05:44;5.10;99.90
2625;DHT22;1322;53.256;10.386;2023-12-14T09:08:10;5.20;99.90
2625;DHT22;1322;53.256;10.386;2023-12-14T09:10:37;5.30;99.90
2625;DHT22;1322;53.256;10.386;2023-12-14T09:13:03;5.30;99.90
2625;DHT22;1322;53.256;10.386;2023-12-14T09:15:31;5.30;99.90
2625;DHT22;1322;53.256;10.386;2023-12-14T09:17:57;5.30;99.90
2625;DHT22;1322;53.256;10.386;2023-12-14T09:20:22;5.20;99.90
2625;DHT22;1322;53.256;10.386;2023-12-14T09:22:48;5.40;99.90
2625;DHT22;1322;53.256;10.386;2023-12-14T09:25:14;5.50;99.90
2625;DHT22;1322;53.256;10.386;2023-12-14T09:27:41;5.60;99.90
2625;DHT22;1322;53.256;10.386;2023-12-14T09:30:07;5.60;99.90
2625;DHT22;1322;53.256;10.386;2023-12-14T09:32:33;5.60;99.90
2625;DHT22;1322;53.256;10.386;2023-12-14T09:34:59;5.60;99.90
2625;DHT22;1322;53.256;10.386;2023-12-14T09:37:24;5.60;99.90
2625;DHT22;1322;53.256;10.386;2023-12-14T09:39:50;5.60;99.90
2625;DHT22;1322;53.256;10.386;2023-12-14T09:42:18;5.80;99.90
2625;DHT22;1322;53.256;10.386;2023-12-14T09:44:51;5.40;99.90
2625;DHT22;1322;53.256;10.386;2023-12-14T09:47:17;5.40;99.90
2625;DHT22;1322;53.256;10.386;2023-12-14T09:49:45;5.40;99.90
2625;DHT22;1322;53.256;10.386;2023-12-14T09:52:11;5.40;99.90
2625;DHT22;1322;53.256;10.386;2023-12-14T09:54:37;5.40;99.90
2625;DHT22;1322;53.256;10.386;2023-12-14T09:57:03;5.50;99.90
2625;DHT22;1322;53.256;10.386;2023-12-14T09:59:29;5.50;99.90
2625;DHT22;1322;53.256;10.386;2023-12-14T10:02:12;5.60;99.90
2625;DHT22;1322;53.256;10.386;2023-12-14T10:04:38;5.50;99.90
2625;DHT22;1322;53.256;10.386;2023-12-14T10:07:03;5.50;99.90
2625;DHT22;1322;53.256;10.386;2023-12-14T10:09:37;5.60;99.90
2625;DHT22;1322;53.256;10.386;2023-12-14T10:12:07;5.60;99.90
2625;DHT22;1322;53.256;10.386;2023-12-14T10:14:34;5.50;99.90
2625;DHT22;1322;53.256;10.386;2023-12-14T10:17:22;5.40;99.90
2625;DHT22;1322;53.256;10.386;2023-12-14T10:19:56;5.30;99.90
2625;DHT22;1322;53.256;10.386;2023-12-14T10:22:22;5.50;99.90
2625;DHT22;1322;53.256;10.386;2023-12-14T10:24:48;5.70;99.90
2625;DHT22;1322;53.256;10.386;2023-12-14T10:27:17;5.70;99.90
2625;DHT22;1322;53.256;10.386;2023-12-14T10:29:42;5.80;99.90
2625;DHT22;1322;53.256;10.386;2023-12-14T10:32:10;5.90;99.90
2625;DHT22;1322;53.256;10.386;2023-12-14T10:34:37;5.80;99.90
2625;DHT22;1322;53.256;10.386;2023-12-14T10:37:05;5.80;99.90
2625;DHT22;1322;53.256;10.386;2023-12-14T10:39:32;5.90;99.90
2625;DHT22;1322;53.256;10.386;2023-12-14T10:41:58;5.90;99.90
2625;DHT22;1322;53.256;10.386;2023-12-14T10:44:27;6.00;99.90
2625;DHT22;1322;53.256;10.386;2023-12-14T10:46:58;6.00;99.90
2625;DHT22;1322;53.256;10.386;2023-12-14T10:49:25;6.00;99.90
2625;DHT22;1322;53.256;10.386;2023-12-14T10:51:57;5.90;99.90
2625;DHT22;1322;53.256;10.386;2023-12-14T10:54:24;5.90;99.90
2625;DHT22;1322;53.256;10.386;2023-12-14T10:56:54;5.90;99.90
2625;DHT22;1322;53.256;10.386;2023-12-14T10:59:20;5.90;99.90
2625;DHT22;1322;53.256;10.386;2023-12-14T11:01:52;6.00;99.90
2625;DHT22;1322;53.256;10.386;2023-12-14T11:04:20;5.90;99.90
2625;DHT22;1322;53.256;10.386;2023-12-14T11:06:46;5.90;99.90
2625;DHT22;1322;53.256;10.386;2023-12-14T11:09:13;5.90;99.90
2625;DHT22;1322;53.256;10.386;2023-12-14T11:14:23;5.90;99.90
2625;DHT22;1322;53.256;10.386;2023-12-14T11:16:50;6.00;99.90
2625;DHT22;1322;53.256;10.386;2023-12-14T11:24:22;6.30;99.90
2625;DHT22;1322;53.256;10.386;2023-12-14T11:26:51;6.30;99.90
2625;DHT22;1322;53.256;10.386;2023-12-14T11:29:19;6.30;99.90
2625;DHT22;1322;53.256;10.386;2023-12-14T11:31:47;6.20;99.90
2625;DHT22;1322;53.256;10.386;2023-12-14T11:34:15;6.20;99.90
2625;DHT22;1322;53.256;10.386;2023-12-14T11:36:41;6.10;99.90
2625;DHT22;1322;53.256;10.386;2023-12-14T11:39:10;6.10;99.90
2625;DHT22;1322;53.256;10.386;2023-12-14T11:41:36;6.10;99.90
2625;DHT22;1322;53.256;10.386;2023-12-14T11:44:04;6.10;99.90
2625;DHT22;1322;53.256;10.386;2023-12-14T11:46:30;6.00;99.90
2625;DHT22;1322;53.256;10.386;2023-12-14T11:48:59;6.00;99.90
2625;DHT22;1322;53.256;10.386;2023-12-14T11:51:28;6.20;99.90
2625;DHT22;1322;53.256;10.386;2023-12-14T11:53:55;6.10;99.90
2625;DHT22;1322;53.256;10.386;2023-12-14T11:56:21;6.00;99.90
2625;DHT22;1322;53.256;10.386;2023-12-14T11:58:49;6.10;99.90
2625;DHT22;1322;53.256;10.386;2023-12-14T12:01:16;6.00;99.90
2625;DHT22;1322;53.256;10.386;2023-12-14T12:03:42;6.20;99.90
2625;DHT22;1322;53.256;10.386;2023-12-14T12:06:22;6.20;99.90
2625;DHT22;1322;53.256;10.386;2023-12-14T12:08:48;6.30;99.90
2625;DHT22;1322;53.256;10.386;2023-12-14T12:11:22;6.20;99.90
2625;DHT22;1322;53.256;10.386;2023-12-14T12:13:53;6.10;99.90
2625;DHT22;1322;53.256;10.386;2023-12-14T12:16:18;6.20;99.90
2625;DHT22;1322;53.256;10.386;2023-12-14T12:18:44;6.10;99.90
2625;DHT22;1322;53.256;10.386;2023-12-14T12:21:11;6.00;99.90
2625;DHT22;1322;53.256;10.386;2023-12-14T12:23:37;6.00;99.90
2625;DHT22;1322;53.256;10.386;2023-12-14T12:26:02;6.10;99.90
2625;DHT22;1322;53.256;10.386;2023-12-14T12:28:30;6.10;99.90
2625;DHT22;1322;53.256;10.386;2023-12-14T12:30:56;6.10;99.90
2625;DHT22;1322;53.256;10.386;2023-12-14T12:33:21;6.00;99.90
2625;DHT22;1322;53.256;10.386;2023-12-14T12:35:47;6.00;99.90
2625;DHT22;1322;53.256;10.386;2023-12-14T12:38:13;6.00;99.90
2625;DHT22;1322;53.256;10.386;2023-12-14T12:40:39;6.00;99.90
2625;DHT22;1322;53.256;10.386;2023-12-14T12:43:05;5.90;99.90
2625;DHT22;1322;53.256;10.386;2023-12-14T12:45:31;5.80;99.90
2625;DHT22;1322;53.256;10.386;2023-12-14T12:47:57;5.70;99.90
2625;DHT22;1322;53.256;10.386;2023-12-14T12:50:23;5.80;99.90
2625;DHT22;1322;53.256;10.386;2023-12-14T12:52:48;5.90;99.90
2625;DHT22;1322;53.256;10.386;2023-12-14T12:55:15;6.00;99.90
2625;DHT22;1322;53.256;10.386;2023-12-14T12:57:40;5.90;99.90
2625;DHT22;1322;53.256;10.386;2023-12-14T13:00:09;5.90;99.90
2625;DHT22;1322;53.256;10.386;2023-12-14T13:02:41;5.80;99.90
2625;DHT22;1322;53.256;10.386;2023-12-14T13:05:08;5.80;99.90
2625;DHT22;1322;53.256;10.386;2023-12-14T13:07:34;5.60;99.90
2625;DHT22;1322;53.256;10.386;2023-12-14T13:10:00;5.60;99.90
2625;DHT22;1322;53.256;10.386;2023-12-14T13:12:26;5.70;99.90
2625;DHT22;1322;53.256;10.386;2023-12-14T13:14:52;5.80;99.90
2625;DHT22;1322;53.256;10.386;2023-12-14T13:17:17;5.90;99.90
2625;DHT22;1322;53.256;10.386;2023-12-14T13:19:44;6.00;99.90
2625;DHT22;1322;53.256;10.386;2023-12-14T13:22:10;5.90;99.90
2625;DHT22;1322;53.256;10.386;2023-12-14T13:24:39;6.00;99.90
2625;DHT22;1322;53.256;10.386;2023-12-14T13:27:05;5.90;99.90
2625;DHT22;1322;53.256;10.386;2023-12-14T13:29:31;6.10;99.90
2625;DHT22;1322;53.256;10.386;2023-12-14T13:31:58;6.10;99.90
2625;DHT22;1322;53.256;10.386;2023-12-14T13:34:24;6.20;99.90
2625;DHT22;1322;53.256;10.386;2023-12-14T13:36:50;6.20;99.90
2625;DHT22;1322;53.256;10.386;2023-12-14T13:39:19;6.20;99.90
2625;DHT22;1322;53.256;10.386;2023-12-14T13:41:45;6.10;99.90
2625;DHT22;1322;53.256;10.386;2023-12-14T13:44:10;6.10;99.90
2625;DHT22;1322;53.256;10.386;2023-12-14T13:46:36;6.00;99.90
2625;DHT22;1322;53.256;10.386;2023-12-14T13:49:02;6.10;99.90
2625;DHT22;1322;53.256;10.386;2023-12-14T13:51:28;6.00;99.90
2625;DHT22;1322;53.256;10.386;2023-12-14T13:53:53;6.00;99.90
2625;DHT22;1322;53.256;10.386;2023-12-14T13:56:19;6.00;99.90
2625;DHT22;1322;53.256;10.386;2023-12-14T13:58:45;6.00;99.90
2625;DHT22;1322;53.256;10.386;2023-12-14T14:01:10;5.70;99.90
2625;DHT22;1322;53.256;10.386;2023-12-14T14:03:37;5.80;99.90
2625;DHT22;1322;53.256;10.386;2023-12-14T14:06:05;5.90;99.90
2625;DHT22;1322;53.256;10.386;2023-12-14T14:08:32;5.80;99.90
2625;DHT22;1322;53.256;10.386;2023-12-14T14:10:58;6.00;99.90
2625;DHT22;1322;53.256;10.386;2023-12-14T14:13:24;6.00;99.90
2625;DHT22;1322;53.256;10.386;2023-12-14T14:15:50;6.00;99.90
2625;DHT22;1322;53.256;10.386;2023-12-14T14:18:16;6.00;99.90
2625;DHT22;1322;53.256;10.386;2023-12-14T14:20:42;6.00;99.90
2625;DHT22;1322;53.256;10.386;2023-12-14T14:23:07;6.00;99.90
2625;DHT22;1322;53.256;10.386;2023-12-14T14:25:33;6.10;99.90
2625;DHT22;1322;53.256;10.386;2023-12-14T14:27:59;6.20;99.90
2625;DHT22;1322;53.256;10.386;2023-12-14T14:30:25;6.40;99.90
2625;DHT22;1322;53.256;10.386;2023-12-14T14:32:51;6.50;99.90
2625;DHT22;1322;53.256;10.386;2023-12-14T14:35:17;6.40;99.90
2625;DHT22;1322;53.256;10.386;2023-12-14T14:37:42;6.40;99.90
2625;DHT22;1322;53.256;10.386;2023-12-14T14:40:12;6.40;99.90
2625;DHT22;1322;53.256;10.386;2023-12-14T14:42:39;6.50;99.90
2625;DHT22;1322;53.256;10.386;2023-12-14T14:45:06;6.50;99.90
2625;DHT22;1322;53.256;10.386;2023-12-14T14:47:32;6.50;99.90
2625;DHT22;1322;53.256;10.386;2023-12-14T14:49:57;6.60;99.90
2625;DHT22;1322;53.256;10.386;2023-12-14T14:52:28;6.50;99.90
2625;DHT22;1322;53.256;10.386;2023-12-14T14:54:54;6.60;99.90
2625;DHT22;1322;53.256;10.386;2023-12-14T14:57:19;6.70;99.90
2625;DHT22;1322;53.256;10.386;2023-12-14T14:59:45;6.70;99.90
2625;DHT22;1322;53.256;10.386;2023-12-14T15:02:11;6.70;99.90
2625;DHT22;1322;53.256;10.386;2023-12-14T15:04:36;6.80;99.90
2625;DHT22;1322;53.256;10.386;2023-12-14T15:07:02;6.80;99.90
2625;DHT22;1322;53.256;10.386;2023-12-14T15:09:28;6.90;99.90
2625;DHT22;1322;53.256;10.386;2023-12-14T15:11:54;6.90;99.90
2625;DHT22;1322;53.256;10.386;2023-12-14T15:14:19;6.90;99.90
2625;DHT22;1322;53.256;10.386;2023-12-14T15:16:45;6.90;99.90
2625;DHT22;1322;53.256;10.386;2023-12-14T15:19:11;6.90;99.90
2625;DHT22;1322;53.256;10.386;2023-12-14T15:21:37;6.90;99.90
2625;DHT22;1322;53.256;10.386;2023-12-14T15:24:03;6.90;99.90
2625;DHT22;1322;53.256;10.386;2023-12-14T15:26:29;6.90;99.90
2625;DHT22;1322;53.256;10.386;2023-12-14T15:28:57;6.90;99.90
2625;DHT22;1322;53.256;10.386;2023-12-14T15:31:23;6.90;99.90
2625;DHT22;1322;53.256;10.386;2023-12-14T15:33:49;6.90;99.90
2625;DHT22;1322;53.256;10.386;2023-12-14T15:36:15;6.90;99.90
2625;DHT22;1322;53.256;10.386;2023-12-14T15:38:40;6.90;99.90
2625;DHT22;1322;53.256;10.386;2023-12-14T15:41:10;6.80;99.90
2625;DHT22;1322;53.256;10.386;2023-12-14T15:43:37;6.90;99.90
2625;DHT22;1322;53.256;10.386;2023-12-14T15:46:02;6.80;99.90
2625;DHT22;1322;53.256;10.386;2023-12-14T15:48:28;6.80;99.90
2625;DHT22;1322;53.256;10.386;2023-12-14T15:50:54;6.80;99.90
2625;DHT22;1322;53.256;10.386;2023-12-14T15:53:19;6.80;99.90
2625;DHT22;1322;53.256;10.386;2023-12-14T15:55:45;6.80;99.90
2625;DHT22;1322;53.256;10.386;2023-12-14T15:58:10;6.80;99.90
2625;DHT22;1322;53.256;10.386;2023-12-14T16:00:37;6.80;99.90
2625;DHT22;1322;53.256;10.386;2023-12-14T16:03:04;6.80;99.90